Time;durP1;ratioP1;P1;durP2;ratioP2;P2;SDS_P1;SDS_P2;PMS_P1;PMS_P2;Temp;Humidity;BMP_temperature;BMP_pressure;BME280_temperature;BME280_humidity;BME280_pressure;Samples;Min_cycle;Max_cycle;Signal;HPM_P1;HPM_P2
2023/03/15 00:02:24;;;;;;;4.60;1.30;;;;;;;1.70;100.00;101079.06;5269967;28;20185;-69
2023/03/15 00:04:55;;;;;;;6.47;1.90;;;;;;;1.72;100.00;101079.88;5274076;28;20047;-69
2023/03/15 00:07:27;;;;;;;6.78;2.10;;;;;;;1.84;100.00;101072.44;5268004;28;20023;-69
2023/03/15 00:09:58;;;;;;;7.28;1.80;;;;;;;1.76;100.00;101070.97;5273048;28;20039;-69
2023/03/15 00:12:30;;;;;;;5.97;1.73;;;;;;;1.75;100.00;101064.00;5268432;28;20382;-69
2023/03/15 00:15:02;;;;;;;3.83;1.40;;;;;;;1.76;100.00;101065.72;5272924;28;20577;-69
2023/03/15 00:17:33;;;;;;;4.03;1.60;;;;;;;1.75;100.00;101071.88;5272368;28;20560;-69
2023/03/15 00:20:05;;;;;;;4.53;1.60;;;;;;;1.76;100.00;101070.09;5273954;28;20509;-69
2023/03/15 00:22:37;;;;;;;4.60;1.70;;;;;;;1.79;100.00;101079.66;5269277;28;20039;-69
2023/03/15 00:25:09;;;;;;;7.63;2.28;;;;;;;1.81;100.00;101075.22;5267900;28;20067;-69
2023/03/15 00:27:40;;;;;;;4.90;1.40;;;;;;;1.83;100.00;101073.38;5276213;28;20028;-69
2023/03/15 00:30:12;;;;;;;5.03;1.83;;;;;;;1.84;100.00;101075.97;5278915;28;20024;-69
2023/03/15 00:32:43;;;;;;;9.38;1.90;;;;;;;1.86;100.00;101078.50;5271436;28;20543;-69
2023/03/15 00:35:17;;;;;;;7.32;1.85;;;;;;;1.87;100.00;101082.88;5270573;28;20667;-69
2023/03/15 00:37:53;;;;;;;5.15;2.00;;;;;;;1.87;100.00;101083.72;5267733;28;20363;-69
2023/03/15 00:40:24;;;;;;;5.45;1.70;;;;;;;1.87;100.00;101081.09;5273038;28;20420;-69
2023/03/15 00:42:56;;;;;;;6.00;1.98;;;;;;;1.92;100.00;101088.84;5266504;28;20033;-69
2023/03/15 00:45:28;;;;;;;6.15;2.20;;;;;;;1.96;100.00;101080.75;5268835;28;20035;-69
2023/03/15 00:47:59;;;;;;;4.47;2.15;;;;;;;2.04;100.00;101084.88;5268601;28;20035;-69
2023/03/15 00:50:30;;;;;;;4.70;1.80;;;;;;;2.07;100.00;101077.75;5270390;28;20185;-69
2023/03/15 00:53:02;;;;;;;4.93;1.90;;;;;;;2.05;100.00;101079.56;5273664;28;20448;-69
2023/03/15 00:55:34;;;;;;;4.60;1.77;;;;;;;2.20;100.00;101083.38;5274905;28;20036;-69
2023/03/15 00:58:05;;;;;;;4.93;1.98;;;;;;;2.23;100.00;101085.06;5277584;28;20034;-69
2023/03/15 01:00:37;;;;;;;7.78;2.30;;;;;;;2.25;100.00;101080.59;5281299;28;20405;-69
2023/03/15 01:03:08;;;;;;;7.10;1.90;;;;;;;2.21;100.00;101079.00;5277525;28;20031;-69
2023/03/15 01:05:40;;;;;;;6.47;1.65;;;;;;;2.25;100.00;101081.44;5273156;28;20086;-69
2023/03/15 01:08:11;;;;;;;6.85;2.22;;;;;;;2.25;100.00;101080.59;5268537;28;21612;-69
2023/03/15 01:10:42;;;;;;;7.30;2.45;;;;;;;2.40;100.00;101085.28;5270268;28;20640;-69
2023/03/15 01:13:14;;;;;;;7.18;2.65;;;;;;;2.28;100.00;101083.97;5274664;28;20119;-69
2023/03/15 01:15:46;;;;;;;7.82;2.72;;;;;;;2.24;100.00;101086.75;5270880;28;20024;-69
2023/03/15 01:18:17;;;;;;;10.73;4.75;;;;;;;2.23;100.00;101095.59;5270263;28;20029;-69
2023/03/15 01:20:49;;;;;;;12.30;5.25;;;;;;;2.22;100.00;101096.50;5275246;28;20028;-69
2023/03/15 01:23:20;;;;;;;8.90;5.35;;;;;;;2.27;100.00;101097.19;5276457;28;20321;-69
2023/03/15 01:25:51;;;;;;;11.95;6.38;;;;;;;2.21;100.00;101100.06;5275475;28;20048;-69
2023/03/15 01:28:23;;;;;;;12.77;6.97;;;;;;;2.27;100.00;101097.19;5281284;28;20075;-68
2023/03/15 01:30:54;;;;;;;13.88;8.90;;;;;;;2.20;100.00;101108.84;5276789;28;20078;-69
2023/03/15 01:33:26;;;;;;;13.68;8.85;;;;;;;2.20;100.00;101103.59;5280343;28;20161;-69
2023/03/15 01:36:00;;;;;;;18.88;11.05;;;;;;;2.19;100.00;101110.63;5294194;28;20020;-68
2023/03/15 01:38:32;;;;;;;16.38;11.35;;;;;;;2.24;100.00;101113.09;5281597;28;20888;-69
2023/03/15 01:41:03;;;;;;;15.73;11.57;;;;;;;2.32;100.00;101118.91;5280450;28;20032;-69
2023/03/15 01:43:34;;;;;;;18.40;11.93;;;;;;;2.26;100.00;101119.16;5280046;28;20466;-69
2023/03/15 01:46:18;;;;;;;18.77;12.93;;;;;;;2.22;100.00;101120.19;5272910;28;20375;-69
2023/03/15 01:49:01;;;;;;;19.48;13.95;;;;;;;2.20;100.00;101116.75;5276572;28;20108;-69
2023/03/15 01:51:41;;;;;;;20.73;13.98;;;;;;;2.21;100.00;101114.06;5271786;28;20036;-69
2023/03/15 01:54:29;;;;;;;19.38;14.20;;;;;;;2.22;100.00;101117.56;5275488;28;20486;-69
2023/03/15 01:57:07;;;;;;;20.23;14.90;;;;;;;2.34;100.00;101122.38;5272836;28;20557;-70
2023/03/15 01:59:44;;;;;;;22.15;15.80;;;;;;;2.20;100.00;101125.50;5274907;28;20055;-70
2023/03/15 02:02:16;;;;;;;20.98;15.27;;;;;;;2.17;100.00;101130.91;5276592;28;20052;-69
2023/03/15 02:04:56;;;;;;;23.50;16.42;;;;;;;2.16;100.00;101130.00;5289038;28;20025;-69
2023/03/15 02:07:33;;;;;;;23.98;16.67;;;;;;;2.13;100.00;101135.41;5280936;28;20028;-69
2023/03/15 02:10:09;;;;;;;24.48;16.90;;;;;;;2.12;100.00;101141.56;5289469;28;20477;-69
2023/03/15 02:12:50;;;;;;;23.45;16.80;;;;;;;2.20;100.00;101149.19;5280572;28;20036;-69
2023/03/15 02:15:21;;;;;;;23.13;17.17;;;;;;;2.18;100.00;101153.66;5274620;28;20035;-69
2023/03/15 02:17:52;;;;;;;27.75;17.92;;;;;;;2.12;100.00;101146.84;5276120;28;20282;-69
2023/03/15 02:20:39;;;;;;;25.38;18.05;;;;;;;2.12;100.00;101165.25;5277271;28;20024;-69
2023/03/15 02:23:14;;;;;;;24.67;18.02;;;;;;;2.12;100.00;101161.78;5274799;28;20028;-69
2023/03/15 02:25:59;;;;;;;25.90;17.85;;;;;;;2.09;100.00;101159.25;5276357;28;20052;-69
2023/03/15 02:28:30;;;;;;;;;;;;;;;2.12;100.00;101160.00;5288730;28;20056;-69
2023/03/15 02:31:02;;;;;;;27.38;17.10;;;;;;;2.04;100.00;101158.56;5275276;28;20400;-69
2023/03/15 02:33:45;;;;;;;28.45;18.05;;;;;;;1.98;100.00;101159.66;5275108;28;20674;-69
2023/03/15 02:36:26;;;;;;;27.92;18.63;;;;;;;1.97;100.00;101168.44;5274912;28;20063;-69
2023/03/15 02:38:57;;;;;;;23.50;17.33;;;;;;;1.93;100.00;101159.78;5273963;28;20379;-68
2023/03/15 02:41:34;;;;;;;22.52;15.80;;;;;;;1.90;100.00;101154.66;5275181;28;20037;-68
2023/03/15 02:44:13;;;;;;;21.98;14.98;;;;;;;1.93;100.00;101162.44;5276746;28;20042;-68
2023/03/15 02:46:48;;;;;;;22.55;13.52;;;;;;;1.92;100.00;101167.78;5274327;28;20043;-68
2023/03/15 02:49:25;;;;;;;20.75;14.32;;;;;;;1.93;100.00;101162.44;5274520;28;21601;-69
2023/03/15 02:51:56;;;;;;;25.02;15.82;;;;;;;1.94;100.00;101176.47;5272912;28;20039;-68
2023/03/15 02:54:27;;;;;;;25.33;15.65;;;;;;;1.95;100.00;101172.91;5277790;28;20351;-68
2023/03/15 02:57:02;;;;;;;23.65;14.80;;;;;;;1.91;100.00;101172.16;5288885;28;20540;-68
2023/03/15 02:59:33;;;;;;;23.00;14.52;;;;;;;1.85;100.00;101172.38;5283394;28;20493;-68
2023/03/15 03:02:05;;;;;;;18.58;13.68;;;;;;;1.83;100.00;101181.25;5281721;28;20102;-68
2023/03/15 03:04:37;;;;;;;20.52;13.45;;;;;;;1.79;100.00;101187.53;5278864;28;20024;-69
2023/03/15 03:07:08;;;;;;;20.48;13.90;;;;;;;1.74;100.00;101199.03;5282034;28;20032;-69
2023/03/15 03:09:40;;;;;;;23.88;14.48;;;;;;;1.75;100.00;101190.25;5289959;28;20060;-68
2023/03/15 03:12:11;;;;;;;23.00;14.25;;;;;;;1.68;100.00;101201.88;5282542;28;20031;-68
2023/03/15 03:14:43;;;;;;;20.10;14.48;;;;;;;1.65;100.00;101214.28;5279853;28;20035;-68
2023/03/15 03:17:14;;;;;;;19.42;14.07;;;;;;;1.67;100.00;101213.34;5281521;28;20059;-68
2023/03/15 03:19:45;;;;;;;18.80;13.43;;;;;;;1.61;100.00;101224.06;5279921;28;20119;-68
2023/03/15 03:22:17;;;;;;;20.85;14.13;;;;;;;1.60;100.00;101217.06;5284294;28;20106;-68
2023/03/15 03:24:48;;;;;;;19.70;14.00;;;;;;;1.67;100.00;101229.13;5276900;28;20040;-68
2023/03/15 03:27:20;;;;;;;19.85;13.75;;;;;;;1.57;100.00;101232.94;5283970;28;20074;-68
2023/03/15 03:29:51;;;;;;;22.52;14.10;;;;;;;1.51;100.00;101236.63;5279838;28;20066;-68
2023/03/15 03:32:22;;;;;;;20.52;13.73;;;;;;;1.46;100.00;101235.06;5279746;28;20028;-68
2023/03/15 03:34:54;;;;;;;20.48;13.02;;;;;;;1.48;100.00;101230.63;5278649;28;20028;-68
2023/03/15 03:37:25;;;;;;;19.92;13.55;;;;;;;1.39;100.00;101225.66;5279786;28;20075;-68
2023/03/15 03:39:57;;;;;;;19.75;13.35;;;;;;;1.32;100.00;101236.38;5280492;28;20036;-68
2023/03/15 03:42:28;;;;;;;20.13;13.20;;;;;;;1.32;100.00;101254.78;5281946;28;20079;-68
2023/03/15 03:45:00;;;;;;;19.42;13.55;;;;;;;1.32;100.00;101260.03;5279701;28;20040;-68
2023/03/15 03:47:31;;;;;;;20.75;12.85;;;;;;;1.27;100.00;101259.31;5286003;28;20512;-68
2023/03/15 03:50:03;;;;;;;18.30;13.05;;;;;;;1.21;100.00;101256.00;5271437;28;20036;-68
2023/03/15 03:52:34;;;;;;;19.58;13.63;;;;;;;1.15;100.00;101259.69;5271310;28;20036;-68
2023/03/15 03:55:05;;;;;;;19.40;13.50;;;;;;;1.12;100.00;101265.03;5272706;28;20082;-68
2023/03/15 03:57:37;;;;;;;19.05;12.63;;;;;;;1.07;100.00;101261.69;5274368;28;20050;-68
2023/03/15 04:00:13;;;;;;;19.42;12.98;;;;;;;1.06;100.00;101268.72;5275008;28;20063;-68
2023/03/15 04:02:44;;;;;;;21.40;13.82;;;;;;;1.01;100.00;101267.13;5269454;28;20031;-68
2023/03/15 04:05:15;;;;;;;18.45;12.85;;;;;;;1.03;100.00;101274.06;5273418;28;20119;-68
2023/03/15 04:07:47;;;;;;;22.13;13.35;;;;;;;0.96;100.00;101270.75;5270909;28;20638;-68
2023/03/15 04:10:18;;;;;;;19.60;12.27;;;;;;;0.97;100.00;101285.59;5269733;28;20032;-68
2023/03/15 04:12:49;;;;;;;19.52;12.35;;;;;;;0.89;100.00;101292.00;5271974;28;20142;-68
2023/03/15 04:15:22;;;;;;;22.88;12.82;;;;;;;0.89;100.00;101298.13;5274244;28;20034;-68
2023/03/15 04:17:56;;;;;;;21.33;13.10;;;;;;;0.79;100.00;101294.03;5275868;28;20092;-68
2023/03/15 04:20:27;;;;;;;19.50;12.13;;;;;;;0.72;100.00;101295.97;5272263;28;20074;-68
2023/03/15 04:22:59;;;;;;;19.80;12.52;;;;;;;0.70;100.00;101308.28;5271426;28;20036;-68
2023/03/15 04:25:30;;;;;;;19.88;12.20;;;;;;;0.75;100.00;101318.69;5272769;28;20044;-68
2023/03/15 04:28:02;;;;;;;19.17;12.40;;;;;;;0.67;100.00;101313.63;5272158;28;20031;-68
2023/03/15 04:30:33;;;;;;;19.27;11.90;;;;;;;0.73;100.00;101309.94;5273254;28;20028;-68
2023/03/15 04:33:05;;;;;;;18.70;11.60;;;;;;;0.64;100.00;101318.97;5272013;28;20027;-68
2023/03/15 04:35:41;;;;;;;18.98;11.40;;;;;;;0.61;100.00;101320.81;5274129;28;20035;-68
2023/03/15 04:38:12;;;;;;;19.27;11.57;;;;;;;0.53;100.00;101321.00;5283655;28;20038;-68
2023/03/15 04:40:44;;;;;;;20.63;11.85;;;;;;;0.61;100.00;101326.06;5281125;28;20032;-68
2023/03/15 04:43:15;;;;;;;23.02;12.30;;;;;;;0.52;100.00;101330.66;5284969;28;20027;-68
2023/03/15 04:45:47;;;;;;;21.70;11.60;;;;;;;0.47;100.00;101339.56;5285871;28;20030;-68
2023/03/15 04:48:18;;;;;;;19.27;12.10;;;;;;;0.41;100.00;101337.09;5284700;28;20493;-68
2023/03/15 04:50:49;;;;;;;19.20;11.85;;;;;;;0.40;100.00;101341.47;5280570;28;20111;-68
2023/03/15 04:53:21;;;;;;;20.73;12.45;;;;;;;0.39;100.00;101345.00;5283667;28;20822;-68
2023/03/15 04:55:52;;;;;;;19.17;11.23;;;;;;;0.33;100.00;101342.56;5287396;28;20031;-68
2023/03/15 04:58:23;;;;;;;20.05;11.93;;;;;;;0.36;100.00;101339.84;5288763;28;20028;-68
2023/03/15 05:00:55;;;;;;;19.33;12.05;;;;;;;0.35;100.00;101349.47;5289320;28;20032;-68
2023/03/15 05:03:26;;;;;;;19.48;11.80;;;;;;;0.34;100.00;101350.38;5285993;28;20059;-68
2023/03/15 05:05:57;;;;;;;19.08;11.70;;;;;;;0.32;100.00;101353.94;5286999;28;20039;-68
2023/03/15 05:08:29;;;;;;;17.10;10.68;;;;;;;0.28;100.00;101352.31;5286611;28;20028;-68
2023/03/15 05:11:00;;;;;;;18.58;11.02;;;;;;;0.27;100.00;101361.06;5286397;28;20035;-69
2023/03/15 05:13:32;;;;;;;21.08;11.77;;;;;;;0.27;100.00;101358.44;5291119;28;20032;-68
2023/03/15 05:16:03;;;;;;;18.95;11.50;;;;;;;0.23;100.00;101368.19;5282774;28;20052;-68
2023/03/15 05:18:34;;;;;;;19.17;11.65;;;;;;;0.21;100.00;101351.56;5284862;28;20024;-68
2023/03/15 05:21:06;;;;;;;20.77;11.90;;;;;;;0.20;100.00;101368.25;5295828;28;20386;-68
2023/03/15 05:23:37;;;;;;;19.65;11.75;;;;;;;0.28;100.00;101371.53;5291716;28;20584;-69
2023/03/15 05:26:08;;;;;;;18.73;11.13;;;;;;;0.23;100.00;101372.53;5295797;28;20043;-69
2023/03/15 05:28:40;;;;;;;19.15;11.60;;;;;;;0.21;100.00;101374.34;5286783;28;20082;-69
2023/03/15 05:31:11;;;;;;;20.25;12.30;;;;;;;0.19;100.00;101372.63;5290094;28;20034;-68
2023/03/15 05:33:45;;;;;;;19.20;11.13;;;;;;;0.19;100.00;101377.88;5290568;28;20028;-69
2023/03/15 05:36:17;;;;;;;19.15;11.57;;;;;;;0.17;100.00;101377.06;5279777;28;20398;-69
2023/03/15 05:38:48;;;;;;;17.60;11.27;;;;;;;0.18;100.00;101381.41;5286738;28;20027;-69
2023/03/15 05:41:19;;;;;;;16.92;10.77;;;;;;;0.22;100.00;101384.81;5274940;28;20038;-69
2023/03/15 05:43:51;;;;;;;17.30;10.73;;;;;;;0.07;100.00;101388.66;5270072;28;20436;-69
2023/03/15 05:46:22;;;;;;;18.70;11.88;;;;;;;0.13;100.00;101391.13;5279002;28;20145;-69
2023/03/15 05:48:53;;;;;;;22.90;12.60;;;;;;;0.05;100.00;101390.47;5275178;28;20032;-69
2023/03/15 05:51:25;;;;;;;28.73;13.52;;;;;;;0.04;100.00;101393.13;5277931;28;20035;-69
2023/03/15 05:53:56;;;;;;;19.92;11.85;;;;;;;0.01;100.00;101398.47;5278307;28;20029;-69
2023/03/15 05:56:27;;;;;;;19.73;12.50;;;;;;;-0.03;100.00;101395.91;5277941;28;20470;-69
2023/03/15 05:59:01;;;;;;;19.08;11.50;;;;;;;-0.03;100.00;101397.66;5274306;28;20089;-69
2023/03/15 06:01:33;;;;;;;19.77;11.88;;;;;;;-0.07;100.00;101411.75;5279409;28;20028;-69
2023/03/15 06:04:04;;;;;;;19.80;12.57;;;;;;;-0.02;100.00;101421.25;5288999;28;20555;-69
2023/03/15 06:06:35;;;;;;;20.20;12.88;;;;;;;0.02;100.00;101424.66;5280684;28;20033;-78
2023/03/15 06:09:06;;;;;;;19.42;12.48;;;;;;;0.02;100.00;101427.28;5280624;28;20063;-78
2023/03/15 06:11:38;;;;;;;21.80;13.07;;;;;;;0.04;100.00;101429.84;5272807;28;20413;-78
2023/03/15 06:14:09;;;;;;;21.60;13.25;;;;;;;0.05;100.00;101428.97;5277918;28;20024;-78
2023/03/15 06:16:41;;;;;;;23.75;12.90;;;;;;;0.06;100.00;101428.03;5278888;28;20075;-78
2023/03/15 06:19:12;;;;;;;22.55;12.80;;;;;;;0.10;100.00;101429.72;5277409;28;20105;-78
2023/03/15 06:21:44;;;;;;;21.67;13.32;;;;;;;0.07;100.00;101440.28;5275924;28;20474;-78
2023/03/15 06:24:15;;;;;;;20.75;11.63;;;;;;;0.09;100.00;101441.97;5278244;28;20024;-79
2023/03/15 06:26:47;;;;;;;21.30;13.07;;;;;;;0.14;100.00;101461.09;5277810;28;20128;-66
2023/03/15 06:29:18;;;;;;;22.40;13.57;;;;;;;0.28;100.00;101465.16;5278385;28;20036;-71
2023/03/15 06:31:49;;;;;;;23.13;13.27;;;;;;;0.24;100.00;101472.22;5278515;28;20028;-71
2023/03/15 06:34:21;;;;;;;21.30;13.48;;;;;;;0.26;100.00;101475.69;5275102;28;20032;-70
2023/03/15 06:36:52;;;;;;;22.15;13.68;;;;;;;0.32;100.00;101479.91;5286751;28;20030;-70
2023/03/15 06:39:23;;;;;;;22.27;13.77;;;;;;;0.34;100.00;101483.38;5270909;28;20559;-70
2023/03/15 06:41:57;;;;;;;22.63;13.82;;;;;;;0.38;100.00;101479.78;5277457;28;20023;-70
2023/03/15 06:44:28;;;;;;;24.43;14.27;;;;;;;0.41;100.00;101492.84;5272346;28;20273;-70
2023/03/15 06:46:59;;;;;;;26.95;14.73;;;;;;;0.47;100.00;101497.06;5273491;28;20063;-70
2023/03/15 06:49:31;;;;;;;26.23;15.00;;;;;;;0.51;100.00;101496.09;5271158;28;20075;-69
2023/03/15 06:52:04;;;;;;;25.30;13.95;;;;;;;0.58;100.00;101500.31;5270732;28;20498;-69
2023/03/15 06:54:36;;;;;;;24.85;14.70;;;;;;;0.64;100.00;101508.03;5269884;28;20441;-69
2023/03/15 06:57:08;;;;;;;28.42;14.90;;;;;;;0.70;100.00;101512.28;5278253;28;20053;-69
2023/03/15 06:59:39;;;;;;;25.05;15.20;;;;;;;0.74;100.00;101516.53;5276316;28;20499;-69
2023/03/15 07:02:14;;;;;;;27.17;15.32;;;;;;;0.76;100.00;101514.75;5278581;28;20034;-69
2023/03/15 07:04:45;;;;;;;26.52;14.85;;;;;;;0.78;100.00;101526.06;5278786;28;20586;-69
2023/03/15 07:07:16;;;;;;;24.95;15.38;;;;;;;0.74;100.00;101527.03;5278758;28;20054;-69
2023/03/15 07:09:48;;;;;;;28.00;15.15;;;;;;;0.76;100.00;101533.13;5274541;28;20026;-69
2023/03/15 07:12:19;;;;;;;25.30;14.63;;;;;;;0.80;100.00;101532.13;5279024;28;20032;-69
2023/03/15 07:14:51;;;;;;;25.33;15.40;;;;;;;0.90;100.00;101538.91;5293430;28;20107;-67
2023/03/15 07:17:22;;;;;;;26.73;15.60;;;;;;;0.83;100.00;101539.97;5291987;28;20035;-67
2023/03/15 07:19:53;;;;;;;25.75;15.57;;;;;;;0.83;100.00;101547.84;5290161;28;20498;-67
2023/03/15 07:22:25;;;;;;;23.40;14.48;;;;;;;0.83;100.00;101553.09;5296358;28;20488;-68
2023/03/15 07:24:56;;;;;;;27.35;15.35;;;;;;;0.89;100.00;101557.34;5299268;28;20031;-69
2023/03/15 07:27:28;;;;;;;29.50;15.95;;;;;;;0.91;100.00;101561.63;5295904;28;20048;-69
2023/03/15 07:30:00;;;;;;;30.55;16.45;;;;;;;0.98;100.00;101567.63;5280729;28;21007;-69
2023/03/15 07:32:31;;;;;;;26.50;15.30;;;;;;;1.05;100.00;101566.53;5281505;28;20028;-69
2023/03/15 07:35:03;;;;;;;29.80;16.02;;;;;;;1.08;100.00;101573.50;5278697;28;20512;-69
2023/03/15 07:37:34;;;;;;;29.83;16.77;;;;;;;1.10;100.00;101577.81;5272829;28;20028;-69
2023/03/15 07:40:08;;;;;;;25.20;16.05;;;;;;;1.10;100.00;101577.81;5286680;28;20032;-69
2023/03/15 07:42:40;;;;;;;27.17;14.52;;;;;;;1.15;100.00;101580.31;5278137;28;20077;-69
2023/03/15 07:45:11;;;;;;;28.73;14.88;;;;;;;1.18;100.00;101588.13;5283600;28;20028;-69
2023/03/15 07:47:43;;;;;;;24.70;13.55;;;;;;;1.18;100.00;101593.38;5288772;28;20452;-70
2023/03/15 07:50:16;;;;;;;25.38;14.15;;;;;;;1.24;100.00;101595.84;5297689;28;20032;-67
2023/03/15 07:52:47;;;;;;;32.15;15.65;;;;;;;1.28;100.00;101605.38;5290722;28;20038;-67
2023/03/15 07:55:19;;;;;;;28.33;15.25;;;;;;;1.32;100.00;101600.91;5295427;28;20409;-67
2023/03/15 07:57:50;;;;;;;22.23;14.48;;;;;;;1.33;100.00;101606.13;5293391;28;20043;-67
2023/03/15 08:00:22;;;;;;;21.40;13.63;;;;;;;1.34;100.00;101604.38;5284063;28;20031;-67
2023/03/15 08:02:53;;;;;;;22.00;12.77;;;;;;;1.40;100.00;101614.75;5288130;28;20043;-67
2023/03/15 08:05:25;;;;;;;22.88;13.23;;;;;;;1.42;100.00;101617.31;5283606;28;20047;-67
2023/03/15 08:07:56;;;;;;;19.70;12.60;;;;;;;1.43;100.00;101625.16;5290628;28;20024;-67
2023/03/15 08:10:27;;;;;;;22.55;13.63;;;;;;;1.47;100.00;101634.69;5290790;28;20111;-67
2023/03/15 08:12:59;;;;;;;21.30;13.13;;;;;;;1.58;100.00;101636.19;5290282;28;20135;-67
2023/03/15 08:15:30;;;;;;;20.88;12.00;;;;;;;1.56;100.00;101639.72;5292897;28;20486;-67
2023/03/15 08:18:02;;;;;;;20.60;12.20;;;;;;;1.62;100.00;101643.97;5292435;28;20074;-67
2023/03/15 08:20:33;;;;;;;19.73;11.50;;;;;;;1.65;100.00;101653.53;5286998;28;20032;-66
2023/03/15 08:23:05;;;;;;;19.48;10.52;;;;;;;1.70;100.00;101651.66;5284422;28;20062;-67
2023/03/15 08:25:39;;;;;;;17.58;10.50;;;;;;;1.78;100.00;101652.28;5293431;28;20032;-67
2023/03/15 08:28:10;;;;;;;;;;;;;;;1.87;100.00;101653.81;5289282;28;20032;-68
2023/03/15 08:30:42;;;;;;;17.95;10.00;;;;;;;1.98;100.00;101664.06;5291422;28;19923;-69
2023/03/15 08:33:13;;;;;;;15.75;10.13;;;;;;;2.04;100.00;101666.53;5291067;28;20117;-69
2023/03/15 08:35:44;;;;;;;18.35;10.82;;;;;;;2.08;100.00;101666.38;5280965;28;20474;-67
2023/03/15 08:38:16;;;;;;;17.73;9.43;;;;;;;2.09;100.00;101665.50;5287582;28;20474;-66
2023/03/15 08:40:47;;;;;;;16.25;8.63;;;;;;;2.16;100.00;101672.28;5286449;28;20040;-66
2023/03/15 08:43:18;;;;;;;13.25;7.95;;;;;;;2.27;100.00;101673.78;5287403;28;20035;-66
2023/03/15 08:45:51;;;;;;;15.70;8.55;;;;;;;2.28;100.00;101673.75;5280780;28;20970;-66
2023/03/15 08:48:22;;;;;;;15.13;8.88;;;;;;;2.32;100.00;101677.13;5276212;28;20050;-66
2023/03/15 08:50:53;;;;;;;13.18;6.90;;;;;;;2.41;100.00;101686.53;5289000;28;20036;-67
2023/03/15 08:53:24;;;;;;;10.23;6.32;;;;;;;2.43;100.00;101685.59;5284133;28;20032;-67
2023/03/15 08:55:56;;;;;;;12.52;6.53;;;;;;;2.49;100.00;101695.97;5289216;28;20059;-67
2023/03/15 08:58:27;;;;;;;12.10;6.65;;;;;;;2.57;100.00;101689.59;5294182;28;20036;-67
2023/03/15 09:00:59;;;;;;;12.80;7.07;;;;;;;2.57;100.00;101679.94;5294469;28;20020;-67
2023/03/15 09:03:33;;;;;;;14.55;7.15;;;;;;;2.59;100.00;101680.75;5291378;28;20047;-67
2023/03/15 09:06:05;;;;;;;12.13;7.30;;;;;;;2.66;100.00;101686.69;5285214;28;20032;-67
2023/03/15 09:08:36;;;;;;;13.30;7.20;;;;;;;2.74;100.00;101689.94;5284239;28;20016;-67
2023/03/15 09:11:07;;;;;;;12.40;6.05;;;;;;;2.76;100.00;101693.38;5296307;28;20107;-67
2023/03/15 09:13:38;;;;;;;13.80;6.43;;;;;;;2.83;100.00;101694.94;5285368;28;20116;-67
2023/03/15 09:16:10;;;;;;;15.35;6.70;;;;;;;2.84;100.00;101696.69;5287215;28;20020;-67
2023/03/15 09:18:42;;;;;;;9.70;6.15;;;;;;;2.88;100.00;101694.81;5296354;28;20019;-67
2023/03/15 09:21:14;;;;;;;11.57;5.28;;;;;;;2.95;100.00;101696.31;5291658;28;20071;-67
2023/03/15 09:23:45;;;;;;;13.05;4.97;;;;;;;3.05;100.00;101691.63;5287396;28;20103;-67
2023/03/15 09:26:17;;;;;;;9.77;5.55;;;;;;;3.13;100.00;101698.41;5289059;28;20067;-67
2023/03/15 09:28:48;;;;;;;10.57;5.05;;;;;;;3.30;100.00;101689.09;5289084;28;20054;-67
2023/03/15 09:31:19;;;;;;;10.25;4.63;;;;;;;3.25;100.00;101696.28;5281257;28;20070;-67
2023/03/15 09:33:50;;;;;;;8.15;3.80;;;;;;;3.29;100.00;101704.03;5283215;28;20585;-67
2023/03/15 09:36:22;;;;;;;9.55;4.30;;;;;;;3.34;100.00;101690.72;5293450;28;20567;-67
2023/03/15 09:38:53;;;;;;;10.23;4.68;;;;;;;3.33;100.00;101692.47;5298175;28;20506;-67
2023/03/15 09:41:42;;;;;;;12.50;4.15;;;;;;;3.51;100.00;101684.88;5296127;28;20035;-67
2023/03/15 09:44:20;;;;;;;8.18;3.20;;;;;;;3.45;100.00;101685.06;5290405;28;20024;-67
2023/03/15 09:47:13;;;;;;;8.15;3.17;;;;;;;3.48;100.00;101690.25;5294800;28;20072;-67
2023/03/15 09:50:00;;;;;;;9.95;3.20;;;;;;;3.48;100.00;101688.47;5294350;28;20594;-67
2023/03/15 09:52:43;;;;;;;8.95;2.80;;;;;;;3.53;100.00;101688.34;5289519;28;20039;-67
2023/03/15 09:55:20;;;;;;;5.60;2.28;;;;;;;3.62;100.00;101695.06;5298275;28;20576;-67
2023/03/15 09:58:01;;;;;;;11.43;3.38;;;;;;;3.61;100.00;101696.84;5287141;28;20562;-67
2023/03/15 10:00:42;;;;;;;8.52;2.95;;;;;;;3.64;100.00;101696.72;5289046;28;20024;-67
2023/03/15 10:03:46;;;;;;;12.27;3.35;;;;;;;3.77;100.00;101696.31;5289100;28;20052;-67
2023/03/15 10:06:28;;;;;;;9.80;2.80;;;;;;;3.96;100.00;101689.47;5280929;28;20039;-67
2023/03/15 10:09:03;;;;;;;8.57;3.03;;;;;;;4.00;100.00;101688.44;5292386;28;20031;-67
2023/03/15 10:11:52;;;;;;;11.82;2.42;;;;;;;3.96;100.00;101686.84;5286578;28;20052;-67
2023/03/15 10:14:43;;;;;;;7.38;2.28;;;;;;;4.01;100.00;101684.03;5283944;27;20043;-67
2023/03/15 10:17:25;;;;;;;9.85;2.75;;;;;;;4.05;100.00;101689.16;5297528;28;20032;-68
2023/03/15 10:20:08;;;;;;;8.20;2.40;;;;;;;4.12;100.00;101695.97;5285062;28;20474;-67
2023/03/15 10:22:48;;;;;;;12.18;2.42;;;;;;;4.13;100.00;101691.53;5278029;28;20082;-68
2023/03/15 10:25:31;;;;;;;5.85;2.20;;;;;;;4.30;100.00;101696.22;5291344;28;20028;-67
2023/03/15 10:28:27;;;;;;;7.55;2.10;;;;;;;4.34;100.00;101696.97;5287234;28;20782;-68
2023/03/15 10:31:09;;;;;;;7.75;2.08;;;;;;;4.46;100.00;101693.84;5298671;28;20751;-67
2023/03/15 10:33:42;;;;;;;9.40;2.75;;;;;;;4.59;100.00;101695.13;5281039;28;20102;-68
2023/03/15 10:36:20;;;;;;;6.47;1.50;;;;;;;4.68;100.00;101691.28;5285543;28;20038;-68
2023/03/15 10:38:51;;;;;;;8.48;2.08;;;;;;;4.89;100.00;101698.38;5288147;28;20290;-67
2023/03/15 10:41:47;;;;;;;8.20;1.73;;;;;;;4.88;100.00;101699.28;5295556;28;20497;-68
2023/03/15 10:44:23;;;;;;;7.63;1.65;;;;;;;4.86;100.00;101695.84;5279971;28;20449;-68
2023/03/15 10:47:18;;;;;;;8.38;1.70;;;;;;;4.93;100.00;101707.03;5288182;28;20031;-68
2023/03/15 10:49:56;;;;;;;6.38;1.85;;;;;;;4.98;100.00;101706.84;5298680;28;20047;-68
2023/03/15 10:52:39;;;;;;;5.18;1.60;;;;;;;5.15;100.00;101703.56;5285311;28;20091;-68
2023/03/15 10:55:19;;;;;;;8.32;1.80;;;;;;;5.17;100.00;101713.13;5286693;28;20047;-69
2023/03/15 10:58:16;;;;;;;5.95;1.40;;;;;;;5.18;100.00;101709.59;5297933;28;20039;-69
2023/03/15 11:01:09;;;;;;;5.50;1.55;;;;;;;5.35;100.00;101713.31;5293215;28;20040;-69
2023/03/15 11:03:42;;;;;;;5.65;1.40;;;;;;;5.56;100.00;101715.09;5286391;28;20113;-69
2023/03/15 11:06:21;;;;;;;8.07;1.35;;;;;;;5.54;100.00;101722.22;5291342;28;20434;-69
2023/03/15 11:08:52;;;;;;;6.40;1.15;;;;;;;5.65;100.00;101717.34;5276612;28;20500;-69
2023/03/15 11:11:24;;;;;;;6.18;1.50;;;;;;;5.63;100.00;101726.28;5287228;28;20032;-68
2023/03/15 11:14:01;;;;;;;6.15;1.77;;;;;;;5.51;100.00;101732.94;5281145;28;20111;-69
2023/03/15 11:16:34;;;;;;;5.07;1.35;;;;;;;5.57;100.00;101737.13;5290874;28;20422;-69
2023/03/15 11:19:18;;;;;;;5.22;1.38;;;;;;;5.59;100.00;101737.94;5290197;28;20115;-69
2023/03/15 11:21:50;;;;;;;4.40;1.20;;;;;;;5.61;100.00;101736.06;5289434;28;20462;-69
2023/03/15 11:24:23;;;;;;;5.18;1.27;;;;;;;5.50;100.00;101744.44;5284547;28;20288;-69
2023/03/15 11:27:00;;;;;;;5.87;1.30;;;;;;;5.56;100.00;101756.56;5290438;28;20184;-69
2023/03/15 11:29:36;;;;;;;5.25;1.38;;;;;;;5.50;100.00;101758.56;5279830;28;20481;-69
2023/03/15 11:32:18;;;;;;;4.10;1.25;;;;;;;5.49;100.00;101751.53;5288723;28;20032;-69
2023/03/15 11:34:57;;;;;;;4.93;1.60;;;;;;;5.53;100.00;101741.69;5278836;28;20024;-69
2023/03/15 11:37:38;;;;;;;4.97;1.25;;;;;;;5.66;100.00;101748.19;5295438;28;20113;-69
2023/03/15 11:40:28;;;;;;;8.05;1.40;;;;;;;5.65;100.00;101748.25;5290257;28;20470;-70
2023/03/15 11:43:05;;;;;;;5.95;1.27;;;;;;;5.67;100.00;101744.59;5286197;28;20036;-69
2023/03/15 11:45:57;;;;;;;11.35;2.50;;;;;;;5.63;100.00;101740.38;5290847;28;20066;-69